Check out our new PWSWeather beta!
PWSweather.com
Personal Weather Stations
Station Observations
KNCGREEN1000
Bell Orchard Drive, Greensboro, NC 27455

Bell Orchard DriveGreensboro, NC 27455

Lat: 36.132, Lon: -79.8

Elevation: 876

Station Type: Acurite Atlas

Http://www.gilhutcheson.com

High Low Average
Temperature 63.1°F17.3°C 40.8°F4.9°C 56.9°F13.8°C
Dew Point 60.5°F15.8°C 31.0°F-0.6°C 53.0°F11.7°C
Winds 17.0 mph 27.4 kmh Calm Calm 5.0 mph S8.0 kmh S
Wind Gusts -- -- --
Humidity 98% 68% 87%
Pressure 30.04 in1017.3 mb 29.73 in1006.8 mb -
Precipitation 0.45 in11.4 mm - -
Hour Temp Dew Point Humidity Winds Wind Gusts Pressure Precip Precip Rate Daily Precip Total
12:03 AM 61.5°F16.4°C 56.9°F13.8°C 85% 10.0 mph SW16.1 kmh SW -- 30.04 in1017.3 mb 0.00 in0.0 mm 0.00 in0.0 mm 0.00 in0.0 mm
12:08 AM 61.6°F16.4°C 56.9°F13.8°C 85% 5.0 mph SSW8.0 kmh SSW -- 30.04 in1017.3 mb 0.00 in0.0 mm 0.00 in0.0 mm 0.00 in0.0 mm
12:13 AM 61.5°F16.4°C 56.9°F13.8°C 85% 9.0 mph S14.5 kmh S -- 30.04 in1017.3 mb 0.00 in0.0 mm 0.00 in0.0 mm 0.00 in0.0 mm
12:18 AM 61.7°F16.5°C 57.1°F13.9°C 85% 6.0 mph S9.7 kmh S -- 30.03 in1016.9 mb 0.00 in0.0 mm 0.00 in0.0 mm 0.00 in0.0 mm
12:23 AM 61.6°F16.4°C 56.9°F13.8°C 85% 5.0 mph SSE8.0 kmh SSE -- 30.03 in1016.9 mb 0.00 in0.0 mm 0.00 in0.0 mm 0.00 in0.0 mm
12:28 AM 61.7°F16.5°C 57.1°F13.9°C 85% 3.0 mph S4.8 kmh S -- 30.02 in1016.6 mb 0.00 in0.0 mm 0.00 in0.0 mm 0.00 in0.0 mm
12:33 AM 61.7°F16.5°C 57.4°F14.1°C 86% 4.0 mph S6.4 kmh S -- 30.02 in1016.6 mb 0.00 in0.0 mm 0.00 in0.0 mm 0.00 in0.0 mm
12:38 AM 61.6°F16.4°C 57.3°F14.1°C 86% 8.0 mph SSW12.9 kmh SSW -- 30.01 in1016.3 mb 0.00 in0.0 mm 0.00 in0.0 mm 0.00 in0.0 mm
12:43 AM 61.6°F16.4°C 57.3°F14.1°C 86% 3.0 mph S4.8 kmh S -- 30.01 in1016.3 mb 0.00 in0.0 mm 0.00 in0.0 mm 0.00 in0.0 mm
12:48 AM 61.7°F16.5°C 57.4°F14.1°C 86% 10.0 mph SSW16.1 kmh SSW -- 30.01 in1016.3 mb 0.00 in0.0 mm 0.00 in0.0 mm 0.00 in0.0 mm
12:53 AM 61.7°F16.5°C 57.4°F14.1°C 86% 4.0 mph S6.4 kmh S -- 30.01 in1016.3 mb 0.00 in0.0 mm 0.00 in0.0 mm 0.00 in0.0 mm
12:58 AM 61.7°F16.5°C 57.4°F14.1°C 86% 6.0 mph S9.7 kmh S -- 30.01 in1016.3 mb 0.00 in0.0 mm 0.00 in0.0 mm 0.00 in0.0 mm
01:03 AM 61.6°F16.4°C 57.6°F14.2°C 87% 6.0 mph S9.7 kmh S -- 30.00 in1015.9 mb 0.00 in0.0 mm 0.00 in0.0 mm 0.00 in0.0 mm
01:08 AM 61.5°F16.4°C 57.6°F14.2°C 87% 3.0 mph SW4.8 kmh SW -- 30.00 in1015.9 mb 0.00 in0.0 mm 0.00 in0.0 mm 0.00 in0.0 mm
01:13 AM 61.6°F16.4°C 57.6°F14.2°C 87% 3.0 mph S4.8 kmh S -- 30.01 in1016.3 mb 0.00 in0.0 mm 0.00 in0.0 mm 0.00 in0.0 mm
01:18 AM 61.5°F16.4°C 57.6°F14.2°C 87% 6.0 mph SSW9.7 kmh SSW -- 30.00 in1015.9 mb 0.00 in0.0 mm 0.00 in0.0 mm 0.00 in0.0 mm
01:23 AM 61.6°F16.4°C 57.6°F14.2°C 87% 6.0 mph SSW9.7 kmh SSW -- 30.01 in1016.3 mb 0.00 in0.0 mm 0.00 in0.0 mm 0.00 in0.0 mm
01:28 AM 61.5°F16.4°C 57.6°F14.2°C 87% 4.0 mph S6.4 kmh S -- 30.01 in1016.3 mb 0.00 in0.0 mm 0.00 in0.0 mm 0.00 in0.0 mm
01:33 AM 61.5°F16.4°C 57.6°F14.2°C 87% 6.0 mph S9.7 kmh S -- 30.01 in1016.3 mb 0.00 in0.0 mm 0.00 in0.0 mm 0.00 in0.0 mm
01:38 AM 61.7°F16.5°C 57.8°F14.3°C 87% 2.0 mph SSW3.2 kmh SSW -- 30.01 in1016.3 mb 0.00 in0.0 mm 0.00 in0.0 mm 0.00 in0.0 mm
01:43 AM 61.6°F16.4°C 57.6°F14.2°C 87% 2.0 mph S3.2 kmh S -- 30.01 in1016.3 mb 0.00 in0.0 mm 0.00 in0.0 mm 0.00 in0.0 mm
01:48 AM 61.5°F16.4°C 57.6°F14.2°C 87% 2.0 mph S3.2 kmh S -- 30.01 in1016.3 mb 0.00 in0.0 mm 0.00 in0.0 mm 0.00 in0.0 mm
01:53 AM 61.5°F16.4°C 57.6°F14.2°C 87% 4.0 mph S6.4 kmh S -- 30.01 in1016.3 mb 0.00 in0.0 mm 0.00 in0.0 mm 0.00 in0.0 mm
01:58 AM 61.5°F16.4°C 57.6°F14.2°C 87% 7.0 mph SSW11.3 kmh SSW -- 30.02 in1016.6 mb 0.00 in0.0 mm 0.00 in0.0 mm 0.00 in0.0 mm
02:03 AM 61.6°F16.4°C 57.6°F14.2°C 87% 6.0 mph S9.7 kmh S -- 30.02 in1016.6 mb 0.00 in0.0 mm 0.00 in0.0 mm 0.00 in0.0 mm
02:08 AM 61.6°F16.4°C 57.6°F14.2°C 87% 4.0 mph S6.4 kmh S -- 30.02 in1016.6 mb 0.00 in0.0 mm 0.00 in0.0 mm 0.00 in0.0 mm
02:13 AM 61.6°F16.4°C 57.6°F14.2°C 87% 3.0 mph SW4.8 kmh SW -- 30.01 in1016.3 mb 0.00 in0.0 mm 0.00 in0.0 mm 0.00 in0.0 mm
02:18 AM 61.6°F16.4°C 57.6°F14.2°C 87% 6.0 mph SSE9.7 kmh SSE -- 30.01 in1016.3 mb 0.00 in0.0 mm 0.00 in0.0 mm 0.00 in0.0 mm
02:23 AM 61.5°F16.4°C 57.6°F14.2°C 87% 6.0 mph SSW9.7 kmh SSW -- 30.01 in1016.3 mb 0.00 in0.0 mm 0.00 in0.0 mm 0.00 in0.0 mm
02:28 AM 61.5°F16.4°C 57.6°F14.2°C 87% 4.0 mph SSE6.4 kmh SSE -- 30.00 in1015.9 mb 0.00 in0.0 mm 0.00 in0.0 mm 0.00 in0.0 mm
02:33 AM 61.4°F16.3°C 57.4°F14.1°C 87% 7.0 mph SSW11.3 kmh SSW -- 30.00 in1015.9 mb 0.00 in0.0 mm 0.00 in0.0 mm 0.00 in0.0 mm
02:38 AM 61.3°F16.3°C 57.7°F14.3°C 88% 6.0 mph SSW9.7 kmh SSW -- 29.99 in1015.6 mb 0.00 in0.0 mm 0.00 in0.0 mm 0.00 in0.0 mm
02:43 AM 61.3°F16.3°C 57.7°F14.3°C 88% 5.0 mph S8.0 kmh S -- 30.00 in1015.9 mb 0.00 in0.0 mm 0.00 in0.0 mm 0.00 in0.0 mm
02:48 AM 61.3°F16.3°C 57.7°F14.3°C 88% 4.0 mph S6.4 kmh S -- 29.99 in1015.6 mb 0.00 in0.0 mm 0.00 in0.0 mm 0.00 in0.0 mm
02:53 AM 61.2°F16.2°C 57.5°F14.2°C 88% 4.0 mph S6.4 kmh S -- 30.00 in1015.9 mb 0.00 in0.0 mm 0.00 in0.0 mm 0.00 in0.0 mm
02:58 AM 61.1°F16.2°C 57.5°F14.2°C 88% 4.0 mph S6.4 kmh S -- 30.01 in1016.3 mb 0.00 in0.0 mm 0.00 in0.0 mm 0.00 in0.0 mm
03:03 AM 61.1°F16.2°C 57.5°F14.2°C 88% 4.0 mph SSE6.4 kmh SSE -- 30.00 in1015.9 mb 0.00 in0.0 mm 0.00 in0.0 mm 0.00 in0.0 mm
03:08 AM 61.1°F16.2°C 57.5°F14.2°C 88% 4.0 mph S6.4 kmh S -- 30.00 in1015.9 mb 0.00 in0.0 mm 0.00 in0.0 mm 0.00 in0.0 mm
03:13 AM 61.0°F16.1°C 57.4°F14.1°C 88% 6.0 mph SW9.7 kmh SW -- 29.99 in1015.6 mb 0.00 in0.0 mm 0.00 in0.0 mm 0.00 in0.0 mm
03:18 AM 61.1°F16.2°C 57.5°F14.2°C 88% 4.0 mph SW6.4 kmh SW -- 29.99 in1015.6 mb 0.00 in0.0 mm 0.00 in0.0 mm 0.00 in0.0 mm
03:23 AM 61.0°F16.1°C 57.4°F14.1°C 88% 7.0 mph S11.3 kmh S -- 29.99 in1015.6 mb 0.00 in0.0 mm 0.00 in0.0 mm 0.00 in0.0 mm
03:28 AM 60.9°F16.1°C 57.7°F14.3°C 89% 7.0 mph S11.3 kmh S -- 29.99 in1015.6 mb 0.00 in0.0 mm 0.00 in0.0 mm 0.00 in0.0 mm
03:33 AM 60.9°F16.1°C 57.7°F14.3°C 89% 7.0 mph S11.3 kmh S -- 29.99 in1015.6 mb 0.00 in0.0 mm 0.00 in0.0 mm 0.00 in0.0 mm
03:38 AM 60.8°F16.0°C 57.5°F14.2°C 89% 3.0 mph WSW4.8 kmh WSW -- 29.99 in1015.6 mb 0.00 in0.0 mm 0.00 in0.0 mm 0.00 in0.0 mm
03:43 AM 60.8°F16.0°C 57.5°F14.2°C 89% 5.0 mph S8.0 kmh S -- 29.99 in1015.6 mb 0.00 in0.0 mm 0.00 in0.0 mm 0.00 in0.0 mm
03:48 AM 60.8°F16.0°C 57.5°F14.2°C 89% 1.0 mph E1.6 kmh E -- 29.98 in1015.2 mb 0.00 in0.0 mm 0.00 in0.0 mm 0.00 in0.0 mm
03:53 AM 60.5°F15.8°C 57.2°F14.0°C 89% 2.0 mph W3.2 kmh W -- 29.99 in1015.6 mb 0.00 in0.0 mm 0.00 in0.0 mm 0.00 in0.0 mm
03:58 AM 60.5°F15.8°C 57.2°F14.0°C 89% 2.0 mph SSW3.2 kmh SSW -- 29.98 in1015.2 mb 0.00 in0.0 mm 0.00 in0.0 mm 0.00 in0.0 mm
04:03 AM 60.4°F15.8°C 57.2°F14.0°C 89% 3.0 mph SSW4.8 kmh SSW -- 29.98 in1015.2 mb 0.00 in0.0 mm 0.00 in0.0 mm 0.00 in0.0 mm
04:08 AM 60.4°F15.8°C 57.5°F14.2°C 90% 9.0 mph SSW14.5 kmh SSW -- 29.98 in1015.2 mb 0.00 in0.0 mm 0.00 in0.0 mm 0.00 in0.0 mm
04:13 AM 60.5°F15.8°C 57.2°F14.0°C 89% 3.0 mph SW4.8 kmh SW -- 29.98 in1015.2 mb 0.00 in0.0 mm 0.00 in0.0 mm 0.00 in0.0 mm
04:18 AM 60.5°F15.8°C 57.2°F14.0°C 89% 2.0 mph S3.2 kmh S -- 29.97 in1014.9 mb 0.00 in0.0 mm 0.00 in0.0 mm 0.00 in0.0 mm
04:23 AM 60.5°F15.8°C 57.5°F14.2°C 90% 3.0 mph SSW4.8 kmh SSW -- 29.97 in1014.9 mb 0.00 in0.0 mm 0.00 in0.0 mm 0.00 in0.0 mm
04:28 AM 60.5°F15.8°C 57.5°F14.2°C 90% 2.0 mph S3.2 kmh S -- 29.96 in1014.6 mb 0.00 in0.0 mm 0.00 in0.0 mm 0.00 in0.0 mm
04:33 AM 60.4°F15.8°C 57.5°F14.2°C 90% 4.0 mph SSE6.4 kmh SSE -- 29.96 in1014.6 mb 0.00 in0.0 mm 0.00 in0.0 mm 0.00 in0.0 mm
04:38 AM 60.3°F15.7°C 57.3°F14.1°C 90% 3.0 mph S4.8 kmh S -- 29.96 in1014.6 mb 0.00 in0.0 mm 0.00 in0.0 mm 0.00 in0.0 mm
04:43 AM 60.3°F15.7°C 57.3°F14.1°C 90% 3.0 mph S4.8 kmh S -- 29.95 in1014.2 mb 0.00 in0.0 mm 0.00 in0.0 mm 0.00 in0.0 mm
04:48 AM 60.2°F15.7°C 57.3°F14.1°C 90% 3.0 mph SSW4.8 kmh SSW -- 29.95 in1014.2 mb 0.00 in0.0 mm 0.00 in0.0 mm 0.00 in0.0 mm
04:55 AM 60.2°F15.7°C 57.6°F14.2°C 91% 3.0 mph S4.8 kmh S -- 29.95 in1014.2 mb 0.00 in0.0 mm 0.00 in0.0 mm 0.00 in0.0 mm
04:58 AM 60.1°F15.6°C 57.4°F14.1°C 91% 3.0 mph S4.8 kmh S -- 29.95 in1014.2 mb 0.00 in0.0 mm 0.00 in0.0 mm 0.00 in0.0 mm
05:03 AM 60.1°F15.6°C 57.4°F14.1°C 91% 2.0 mph S3.2 kmh S -- 29.95 in1014.2 mb 0.00 in0.0 mm 0.00 in0.0 mm 0.00 in0.0 mm
05:08 AM 60.0°F15.6°C 57.4°F14.1°C 91% 2.0 mph SSE3.2 kmh SSE -- 29.95 in1014.2 mb 0.00 in0.0 mm 0.00 in0.0 mm 0.00 in0.0 mm
05:13 AM 59.9°F15.5°C 57.2°F14.0°C 91% 4.0 mph SSW6.4 kmh SSW -- 29.95 in1014.2 mb 0.00 in0.0 mm 0.00 in0.0 mm 0.00 in0.0 mm
05:18 AM 59.8°F15.4°C 57.4°F14.1°C 92% 1.0 mph SSW1.6 kmh SSW -- 29.94 in1013.9 mb 0.00 in0.0 mm 0.00 in0.0 mm 0.00 in0.0 mm
05:23 AM 59.8°F15.4°C 57.4°F14.1°C 92% 2.0 mph SSE3.2 kmh SSE -- 29.95 in1014.2 mb 0.00 in0.0 mm 0.00 in0.0 mm 0.00 in0.0 mm
05:28 AM 59.7°F15.4°C 57.4°F14.1°C 92% Calm Calm -- 29.95 in1014.2 mb 0.00 in0.0 mm 0.00 in0.0 mm 0.00 in0.0 mm
05:33 AM 59.7°F15.4°C 57.4°F14.1°C 92% Calm Calm -- 29.95 in1014.2 mb 0.00 in0.0 mm 0.00 in0.0 mm 0.00 in0.0 mm
05:38 AM 59.5°F15.3°C 57.2°F14.0°C 92% 2.0 mph NNW3.2 kmh NNW -- 29.94 in1013.9 mb 0.00 in0.0 mm 0.00 in0.0 mm 0.00 in0.0 mm
05:43 AM 59.3°F15.2°C 57.3°F14.1°C 93% 2.0 mph E3.2 kmh E -- 29.95 in1014.2 mb 0.00 in0.0 mm 0.00 in0.0 mm 0.00 in0.0 mm
05:48 AM 59.3°F15.2°C 57.3°F14.1°C 93% 2.0 mph NNW3.2 kmh NNW -- 29.94 in1013.9 mb 0.00 in0.0 mm 0.00 in0.0 mm 0.00 in0.0 mm
05:53 AM 59.1°F15.1°C 56.8°F13.8°C 92% 1.0 mph SE1.6 kmh SE -- 29.95 in1014.2 mb 0.00 in0.0 mm 0.00 in0.0 mm 0.00 in0.0 mm
05:58 AM 57.1°F13.9°C 54.7°F12.6°C 92% 3.0 mph NW4.8 kmh NW -- 29.93 in1013.5 mb 0.01 in0.3 mm 0.12 in3.0 mm 0.01 in0.3 mm
06:03 AM 57.1°F13.9°C 55.0°F12.8°C 93% 2.0 mph NE3.2 kmh NE -- 29.95 in1014.2 mb 0.10 in2.5 mm 0.10 in2.5 mm 0.10 in2.5 mm
06:08 AM 56.6°F13.7°C 54.6°F12.6°C 93% Calm Calm -- 29.95 in1014.2 mb 0.15 in3.8 mm 0.60 in15.2 mm 0.15 in3.8 mm
06:13 AM 56.0°F13.3°C 53.9°F12.2°C 93% 2.0 mph ENE3.2 kmh ENE -- 29.93 in1013.5 mb 0.23 in5.8 mm 0.96 in24.4 mm 0.23 in5.8 mm
06:18 AM 55.7°F13.2°C 54.0°F12.2°C 94% 3.0 mph S4.8 kmh S -- 29.93 in1013.5 mb 0.29 in7.4 mm 0.72 in18.3 mm 0.29 in7.4 mm
06:23 AM 55.8°F13.2°C 54.0°F12.2°C 94% Calm Calm -- 29.95 in1014.2 mb 0.33 in8.4 mm 0.48 in12.2 mm 0.33 in8.4 mm
06:28 AM 55.9°F13.3°C 54.5°F12.5°C 95% Calm Calm -- 29.94 in1013.9 mb 0.34 in8.6 mm 0.12 in3.0 mm 0.34 in8.6 mm
06:33 AM 55.9°F13.3°C 54.5°F12.5°C 95% Calm Calm -- 29.93 in1013.5 mb 0.35 in8.9 mm 0.12 in3.0 mm 0.35 in8.9 mm
06:38 AM 56.0°F13.3°C 54.5°F12.5°C 95% Calm Calm -- 29.91 in1012.9 mb 0.36 in9.1 mm 0.12 in3.0 mm 0.36 in9.1 mm
06:43 AM 56.2°F13.4°C 55.0°F12.8°C 96% 2.0 mph SSE3.2 kmh SSE -- 29.91 in1012.9 mb 0.37 in9.4 mm 0.12 in3.0 mm 0.37 in9.4 mm
06:48 AM 56.9°F13.8°C 55.7°F13.2°C 96% 2.0 mph S3.2 kmh S -- 29.91 in1012.9 mb 0.37 in9.4 mm 0.00 in0.0 mm 0.37 in9.4 mm
06:53 AM 57.0°F13.9°C 55.9°F13.3°C 96% 3.0 mph SSE4.8 kmh SSE -- 29.91 in1012.9 mb 0.37 in9.4 mm 0.00 in0.0 mm 0.37 in9.4 mm
06:58 AM 57.1°F13.9°C 55.9°F13.3°C 96% 3.0 mph S4.8 kmh S -- 29.90 in1012.5 mb 0.22 in5.6 mm 0.00 in0.0 mm 0.37 in9.4 mm
07:03 AM 57.3°F14.1°C 56.5°F13.6°C 97% 3.0 mph S4.8 kmh S -- 29.88 in1011.9 mb 0.22 in5.6 mm 0.00 in0.0 mm 0.37 in9.4 mm
07:08 AM 57.2°F14.0°C 56.1°F13.4°C 96% 3.0 mph SSE4.8 kmh SSE -- 29.87 in1011.5 mb 0.09 in2.3 mm 0.00 in0.0 mm 0.37 in9.4 mm
07:13 AM 57.4°F14.1°C 56.5°F13.6°C 97% 3.0 mph S4.8 kmh S -- 29.88 in1011.9 mb 0.09 in2.3 mm 0.00 in0.0 mm 0.37 in9.4 mm
07:18 AM 57.4°F14.1°C 56.5°F13.6°C 97% 3.0 mph S4.8 kmh S -- 29.87 in1011.5 mb 0.05 in1.3 mm 0.00 in0.0 mm 0.38 in9.7 mm
07:23 AM 57.3°F14.1°C 56.5°F13.6°C 97% 7.0 mph S11.3 kmh S -- 29.86 in1011.2 mb 0.05 in1.3 mm 0.00 in0.0 mm 0.38 in9.7 mm
07:28 AM 57.5°F14.2°C 56.7°F13.7°C 97% 2.0 mph SSW3.2 kmh SSW -- 29.87 in1011.5 mb 0.02 in0.5 mm 0.00 in0.0 mm 0.38 in9.7 mm
07:33 AM 57.6°F14.2°C 56.7°F13.7°C 97% 4.0 mph S6.4 kmh S -- 29.88 in1011.9 mb 0.02 in0.5 mm 0.00 in0.0 mm 0.38 in9.7 mm
07:38 AM 57.6°F14.2°C 56.7°F13.7°C 97% 2.0 mph S3.2 kmh S -- 29.88 in1011.9 mb 0.01 in0.3 mm 0.00 in0.0 mm 0.38 in9.7 mm
07:43 AM 57.7°F14.3°C 56.9°F13.8°C 97% 5.0 mph SSW8.0 kmh SSW -- 29.87 in1011.5 mb 0.01 in0.3 mm 0.00 in0.0 mm 0.38 in9.7 mm
07:48 AM 57.8°F14.3°C 56.9°F13.8°C 97% 5.0 mph S8.0 kmh S -- 29.87 in1011.5 mb 0.01 in0.3 mm 0.00 in0.0 mm 0.38 in9.7 mm
07:53 AM 58.0°F14.4°C 57.1°F13.9°C 97% 4.0 mph S6.4 kmh S -- 29.88 in1011.9 mb 0.01 in0.3 mm 0.00 in0.0 mm 0.38 in9.7 mm
07:58 AM 57.9°F14.4°C 57.1°F13.9°C 97% 2.0 mph S3.2 kmh S -- 29.89 in1012.2 mb 0.01 in0.3 mm 0.00 in0.0 mm 0.38 in9.7 mm
08:03 AM 58.0°F14.4°C 57.1°F13.9°C 97% 4.0 mph S6.4 kmh S -- 29.88 in1011.9 mb 0.01 in0.3 mm 0.00 in0.0 mm 0.38 in9.7 mm
08:08 AM 58.2°F14.6°C 57.4°F14.1°C 97% 3.0 mph S4.8 kmh S -- 29.88 in1011.9 mb 0.01 in0.3 mm 0.00 in0.0 mm 0.38 in9.7 mm
08:13 AM 58.3°F14.6°C 57.4°F14.1°C 97% 5.0 mph SSW8.0 kmh SSW -- 29.88 in1011.9 mb 0.01 in0.3 mm 0.00 in0.0 mm 0.38 in9.7 mm
08:18 AM 58.4°F14.7°C 57.9°F14.4°C 98% 6.0 mph S9.7 kmh S -- 29.88 in1011.9 mb 0.00 in0.0 mm 0.00 in0.0 mm 0.38 in9.7 mm
08:23 AM 58.6°F14.8°C 58.1°F14.5°C 98% 6.0 mph S9.7 kmh S -- 29.89 in1012.2 mb 0.00 in0.0 mm 0.00 in0.0 mm 0.38 in9.7 mm
08:28 AM 58.6°F14.8°C 57.8°F14.3°C 97% 6.0 mph S9.7 kmh S -- 29.89 in1012.2 mb 0.00 in0.0 mm 0.00 in0.0 mm 0.38 in9.7 mm
08:33 AM 58.6°F14.8°C 57.8°F14.3°C 97% 8.0 mph S12.9 kmh S -- 29.88 in1011.9 mb 0.00 in0.0 mm 0.00 in0.0 mm 0.38 in9.7 mm
08:38 AM 58.7°F14.8°C 57.8°F14.3°C 97% 4.0 mph S6.4 kmh S -- 29.87 in1011.5 mb 0.00 in0.0 mm 0.00 in0.0 mm 0.38 in9.7 mm
08:43 AM 58.7°F14.8°C 57.8°F14.3°C 97% 4.0 mph S6.4 kmh S -- 29.87 in1011.5 mb 0.00 in0.0 mm 0.00 in0.0 mm 0.38 in9.7 mm
08:48 AM 58.7°F14.8°C 57.8°F14.3°C 97% 6.0 mph S9.7 kmh S -- 29.86 in1011.2 mb 0.00 in0.0 mm 0.00 in0.0 mm 0.38 in9.7 mm
08:53 AM 58.6°F14.8°C 57.8°F14.3°C 97% 7.0 mph SE11.3 kmh SE -- 29.86 in1011.2 mb 0.00 in0.0 mm 0.00 in0.0 mm 0.38 in9.7 mm
08:58 AM 58.8°F14.9°C 57.7°F14.3°C 96% 6.0 mph S9.7 kmh S -- 29.86 in1011.2 mb 0.00 in0.0 mm 0.00 in0.0 mm 0.38 in9.7 mm
09:03 AM 59.0°F15.0°C 57.9°F14.4°C 96% 6.0 mph S9.7 kmh S -- 29.86 in1011.2 mb 0.00 in0.0 mm 0.00 in0.0 mm 0.38 in9.7 mm
09:08 AM 59.1°F15.1°C 58.0°F14.4°C 96% 6.0 mph SW9.7 kmh SW -- 29.86 in1011.2 mb 0.00 in0.0 mm 0.00 in0.0 mm 0.38 in9.7 mm
09:13 AM 59.2°F15.1°C 58.0°F14.4°C 96% 5.0 mph SSE8.0 kmh SSE -- 29.86 in1011.2 mb 0.00 in0.0 mm 0.00 in0.0 mm 0.38 in9.7 mm
09:18 AM 59.4°F15.2°C 58.2°F14.6°C 96% 8.0 mph S12.9 kmh S -- 29.85 in1010.8 mb 0.00 in0.0 mm 0.00 in0.0 mm 0.38 in9.7 mm
09:23 AM 59.6°F15.3°C 58.4°F14.7°C 96% 2.0 mph S3.2 kmh S -- 29.84 in1010.5 mb 0.00 in0.0 mm 0.00 in0.0 mm 0.38 in9.7 mm
09:28 AM 59.7°F15.4°C 58.6°F14.8°C 96% 10.0 mph SW16.1 kmh SW -- 29.85 in1010.8 mb 0.00 in0.0 mm 0.00 in0.0 mm 0.38 in9.7 mm
09:33 AM 59.9°F15.5°C 58.7°F14.8°C 96% 3.0 mph S4.8 kmh S -- 29.84 in1010.5 mb 0.00 in0.0 mm 0.00 in0.0 mm 0.38 in9.7 mm
09:38 AM 60.1°F15.6°C 58.9°F14.9°C 96% 4.0 mph S6.4 kmh S -- 29.85 in1010.8 mb 0.00 in0.0 mm 0.00 in0.0 mm 0.38 in9.7 mm
09:43 AM 60.2°F15.7°C 59.1°F15.1°C 96% 6.0 mph S9.7 kmh S -- 29.85 in1010.8 mb 0.00 in0.0 mm 0.00 in0.0 mm 0.38 in9.7 mm
09:48 AM 60.3°F15.7°C 59.1°F15.1°C 96% 7.0 mph S11.3 kmh S -- 29.85 in1010.8 mb 0.00 in0.0 mm 0.00 in0.0 mm 0.38 in9.7 mm
09:53 AM 60.5°F15.8°C 59.0°F15.0°C 95% 2.0 mph SSE3.2 kmh SSE -- 29.85 in1010.8 mb 0.00 in0.0 mm 0.00 in0.0 mm 0.38 in9.7 mm
09:58 AM 60.7°F15.9°C 59.2°F15.1°C 95% 7.0 mph S11.3 kmh S -- 29.85 in1010.8 mb 0.00 in0.0 mm 0.00 in0.0 mm 0.38 in9.7 mm
10:03 AM 60.7°F15.9°C 59.2°F15.1°C 95% 3.0 mph SSE4.8 kmh SSE -- 29.85 in1010.8 mb 0.00 in0.0 mm 0.00 in0.0 mm 0.38 in9.7 mm
10:08 AM 60.7°F15.9°C 59.2°F15.1°C 95% 4.0 mph SW6.4 kmh SW -- 29.86 in1011.2 mb 0.00 in0.0 mm 0.00 in0.0 mm 0.38 in9.7 mm
10:13 AM 60.9°F16.1°C 59.5°F15.3°C 95% 9.0 mph SW14.5 kmh SW -- 29.85 in1010.8 mb 0.00 in0.0 mm 0.00 in0.0 mm 0.38 in9.7 mm
10:18 AM 62.1°F16.7°C 60.0°F15.6°C 93% 4.0 mph S6.4 kmh S -- 29.82 in1009.8 mb 0.01 in0.3 mm 0.12 in3.0 mm 0.39 in9.9 mm
10:23 AM 61.1°F16.2°C 59.7°F15.4°C 95% 11.0 mph SSW17.7 kmh SSW -- 29.85 in1010.8 mb 0.00 in0.0 mm 0.00 in0.0 mm 0.38 in9.7 mm
10:28 AM 61.3°F16.3°C 59.9°F15.5°C 95% 7.0 mph SE11.3 kmh SE -- 29.85 in1010.8 mb 0.00 in0.0 mm 0.00 in0.0 mm 0.38 in9.7 mm
10:33 AM 61.2°F16.2°C 59.4°F15.2°C 94% 7.0 mph S11.3 kmh S -- 29.84 in1010.5 mb 0.00 in0.0 mm 0.00 in0.0 mm 0.38 in9.7 mm
10:38 AM 61.4°F16.3°C 59.9°F15.5°C 95% 7.0 mph SSW11.3 kmh SSW -- 29.84 in1010.5 mb 0.01 in0.3 mm 0.12 in3.0 mm 0.39 in9.9 mm
10:43 AM 61.6°F16.4°C 59.8°F15.4°C 94% 5.0 mph SSW8.0 kmh SSW -- 29.83 in1010.2 mb 0.01 in0.3 mm 0.00 in0.0 mm 0.39 in9.9 mm
10:48 AM 61.7°F16.5°C 59.9°F15.5°C 94% 10.0 mph SW16.1 kmh SW -- 29.83 in1010.2 mb 0.01 in0.3 mm 0.00 in0.0 mm 0.39 in9.9 mm
10:53 AM 61.8°F16.6°C 60.1°F15.6°C 94% 5.0 mph SSW8.0 kmh SSW -- 29.82 in1009.8 mb 0.01 in0.3 mm 0.00 in0.0 mm 0.39 in9.9 mm
10:58 AM 61.8°F16.6°C 60.1°F15.6°C 94% 8.0 mph SW12.9 kmh SW -- 29.82 in1009.8 mb 0.01 in0.3 mm 0.00 in0.0 mm 0.39 in9.9 mm
11:03 AM 61.9°F16.6°C 60.1°F15.6°C 94% 4.0 mph S6.4 kmh S -- 29.82 in1009.8 mb 0.01 in0.3 mm 0.00 in0.0 mm 0.39 in9.9 mm
11:08 AM 61.9°F16.6°C 60.1°F15.6°C 94% 2.0 mph S3.2 kmh S -- 29.82 in1009.8 mb 0.01 in0.3 mm 0.00 in0.0 mm 0.39 in9.9 mm
11:13 AM 62.1°F16.7°C 60.0°F15.6°C 93% 4.0 mph S6.4 kmh S -- 29.82 in1009.8 mb 0.01 in0.3 mm 0.00 in0.0 mm 0.39 in9.9 mm
11:18 AM 62.1°F16.7°C 60.0°F15.6°C 93% 6.0 mph SSW9.7 kmh SSW -- 29.82 in1009.8 mb 0.01 in0.3 mm 0.00 in0.0 mm 0.39 in9.9 mm
11:23 AM 62.3°F16.8°C 60.2°F15.7°C 93% 7.0 mph S11.3 kmh S -- 29.82 in1009.8 mb 0.01 in0.3 mm 0.00 in0.0 mm 0.39 in9.9 mm
11:28 AM 62.3°F16.8°C 60.2°F15.7°C 93% 10.0 mph SW16.1 kmh SW -- 29.81 in1009.5 mb 0.00 in0.0 mm 0.00 in0.0 mm 0.39 in9.9 mm
11:33 AM 62.2°F16.8°C 60.5°F15.8°C 94% 6.0 mph S9.7 kmh S -- 29.81 in1009.5 mb 0.00 in0.0 mm 0.00 in0.0 mm 0.39 in9.9 mm
11:38 AM 62.2°F16.8°C 60.5°F15.8°C 94% 4.0 mph WSW6.4 kmh WSW -- 29.80 in1009.1 mb 0.01 in0.3 mm 0.12 in3.0 mm 0.40 in10.2 mm
11:43 AM 62.2°F16.8°C 60.5°F15.8°C 94% 9.0 mph S14.5 kmh S -- 29.80 in1009.1 mb 0.01 in0.3 mm 0.00 in0.0 mm 0.40 in10.2 mm
11:48 AM 62.1°F16.7°C 60.3°F15.7°C 94% 17.0 mph S27.4 kmh S -- 29.80 in1009.1 mb 0.01 in0.3 mm 0.00 in0.0 mm 0.40 in10.2 mm
11:53 AM 62.0°F16.7°C 60.3°F15.7°C 94% 8.0 mph S12.9 kmh S -- 29.79 in1008.8 mb 0.02 in0.5 mm 0.12 in3.0 mm 0.41 in10.4 mm
11:58 AM 62.0°F16.7°C 60.3°F15.7°C 94% 13.0 mph S20.9 kmh S -- 29.78 in1008.5 mb 0.02 in0.5 mm 0.00 in0.0 mm 0.41 in10.4 mm
12:03 PM 62.0°F16.7°C 60.3°F15.7°C 94% 7.0 mph S11.3 kmh S -- 29.78 in1008.5 mb 0.02 in0.5 mm 0.00 in0.0 mm 0.41 in10.4 mm
12:08 PM 61.9°F16.6°C 60.1°F15.6°C 94% 8.0 mph S12.9 kmh S -- 29.77 in1008.1 mb 0.02 in0.5 mm 0.00 in0.0 mm 0.41 in10.4 mm
12:13 PM 61.9°F16.6°C 60.1°F15.6°C 94% 10.0 mph S16.1 kmh S -- 29.77 in1008.1 mb 0.02 in0.5 mm 0.00 in0.0 mm 0.41 in10.4 mm
12:18 PM 61.9°F16.6°C 60.1°F15.6°C 94% 6.0 mph SSW9.7 kmh SSW -- 29.77 in1008.1 mb 0.02 in0.5 mm 0.00 in0.0 mm 0.41 in10.4 mm
12:23 PM 61.9°F16.6°C 60.1°F15.6°C 94% 4.0 mph SSW6.4 kmh SSW -- 29.77 in1008.1 mb 0.02 in0.5 mm 0.00 in0.0 mm 0.41 in10.4 mm
12:28 PM 61.9°F16.6°C 60.1°F15.6°C 94% 8.0 mph WSW12.9 kmh WSW -- 29.77 in1008.1 mb 0.01 in0.3 mm 0.00 in0.0 mm 0.41 in10.4 mm
12:33 PM 62.0°F16.7°C 60.0°F15.6°C 93% 4.0 mph S6.4 kmh S -- 29.77 in1008.1 mb 0.01 in0.3 mm 0.00 in0.0 mm 0.41 in10.4 mm
12:38 PM 62.0°F16.7°C 60.0°F15.6°C 93% 11.0 mph SW17.7 kmh SW -- 29.77 in1008.1 mb 0.01 in0.3 mm 0.00 in0.0 mm 0.41 in10.4 mm
12:43 PM 62.2°F16.8°C 60.2°F15.7°C 93% 4.0 mph SW6.4 kmh SW -- 29.76 in1007.8 mb 0.01 in0.3 mm 0.00 in0.0 mm 0.41 in10.4 mm
12:48 PM 62.1°F16.7°C 60.0°F15.6°C 93% 7.0 mph S11.3 kmh S -- 29.76 in1007.8 mb 0.00 in0.0 mm 0.00 in0.0 mm 0.41 in10.4 mm
12:53 PM 62.2°F16.8°C 60.2°F15.7°C 93% 5.0 mph S8.0 kmh S -- 29.76 in1007.8 mb 0.00 in0.0 mm 0.00 in0.0 mm 0.41 in10.4 mm
12:58 PM 62.1°F16.7°C 60.0°F15.6°C 93% 6.0 mph S9.7 kmh S -- 29.76 in1007.8 mb 0.00 in0.0 mm 0.00 in0.0 mm 0.41 in10.4 mm
01:03 PM 62.1°F16.7°C 60.0°F15.6°C 93% 8.0 mph SW12.9 kmh SW -- 29.76 in1007.8 mb 0.00 in0.0 mm 0.00 in0.0 mm 0.41 in10.4 mm
01:08 PM 62.3°F16.8°C 60.2°F15.7°C 93% 6.0 mph S9.7 kmh S -- 29.75 in1007.5 mb 0.00 in0.0 mm 0.00 in0.0 mm 0.41 in10.4 mm
01:13 PM 62.3°F16.8°C 60.2°F15.7°C 93% 3.0 mph S4.8 kmh S -- 29.75 in1007.5 mb 0.00 in0.0 mm 0.00 in0.0 mm 0.41 in10.4 mm
01:18 PM 62.3°F16.8°C 60.2°F15.7°C 93% 2.0 mph S3.2 kmh S -- 29.75 in1007.5 mb 0.00 in0.0 mm 0.00 in0.0 mm 0.41 in10.4 mm
01:23 PM 62.3°F16.8°C 59.9°F15.5°C 92% 4.0 mph SSE6.4 kmh SSE -- 29.75 in1007.5 mb 0.00 in0.0 mm 0.00 in0.0 mm 0.41 in10.4 mm
01:28 PM 62.3°F16.8°C 59.9°F15.5°C 92% 7.0 mph S11.3 kmh S -- 29.74 in1007.1 mb 0.00 in0.0 mm 0.00 in0.0 mm 0.41 in10.4 mm
01:33 PM 62.4°F16.9°C 60.0°F15.6°C 92% 6.0 mph S9.7 kmh S -- 29.74 in1007.1 mb 0.00 in0.0 mm 0.00 in0.0 mm 0.41 in10.4 mm
01:38 PM 62.4°F16.9°C 60.0°F15.6°C 92% 6.0 mph SW9.7 kmh SW -- 29.74 in1007.1 mb 0.00 in0.0 mm 0.00 in0.0 mm 0.41 in10.4 mm
01:43 PM 62.4°F16.9°C 60.0°F15.6°C 92% 4.0 mph SW6.4 kmh SW -- 29.74 in1007.1 mb 0.00 in0.0 mm 0.00 in0.0 mm 0.41 in10.4 mm
01:48 PM 62.3°F16.8°C 59.9°F15.5°C 92% 7.0 mph S11.3 kmh S -- 29.73 in1006.8 mb 0.00 in0.0 mm 0.00 in0.0 mm 0.41 in10.4 mm
01:53 PM 62.4°F16.9°C 59.7°F15.4°C 91% 7.0 mph S11.3 kmh S -- 29.74 in1007.1 mb 0.00 in0.0 mm 0.00 in0.0 mm 0.41 in10.4 mm
01:58 PM 62.6°F17.0°C 59.9°F15.5°C 91% 7.0 mph SSE11.3 kmh SSE -- 29.73 in1006.8 mb 0.00 in0.0 mm 0.00 in0.0 mm 0.41 in10.4 mm
02:03 PM 62.7°F17.1°C 60.1°F15.6°C 91% 3.0 mph S4.8 kmh S -- 29.73 in1006.8 mb 0.00 in0.0 mm 0.00 in0.0 mm 0.41 in10.4 mm
02:08 PM 62.7°F17.1°C 60.1°F15.6°C 91% 6.0 mph SSE9.7 kmh SSE -- 29.73 in1006.8 mb 0.00 in0.0 mm 0.00 in0.0 mm 0.41 in10.4 mm
02:13 PM 62.8°F17.1°C 60.1°F15.6°C 91% 6.0 mph WSW9.7 kmh WSW -- 29.73 in1006.8 mb 0.00 in0.0 mm 0.00 in0.0 mm 0.41 in10.4 mm
02:18 PM 62.8°F17.1°C 59.8°F15.4°C 90% 6.0 mph S9.7 kmh S -- 29.73 in1006.8 mb 0.00 in0.0 mm 0.00 in0.0 mm 0.41 in10.4 mm
02:23 PM 62.8°F17.1°C 59.8°F15.4°C 90% 5.0 mph S8.0 kmh S -- 29.73 in1006.8 mb 0.00 in0.0 mm 0.00 in0.0 mm 0.41 in10.4 mm
02:28 PM 62.9°F17.2°C 60.0°F15.6°C 90% 4.0 mph E6.4 kmh E -- 29.73 in1006.8 mb 0.00 in0.0 mm 0.00 in0.0 mm 0.41 in10.4 mm
02:33 PM 62.9°F17.2°C 60.0°F15.6°C 90% 8.0 mph SW12.9 kmh SW -- 29.73 in1006.8 mb 0.00 in0.0 mm 0.00 in0.0 mm 0.41 in10.4 mm
02:38 PM 63.0°F17.2°C 59.6°F15.3°C 89% 4.0 mph S6.4 kmh S -- 29.73 in1006.8 mb 0.00 in0.0 mm 0.00 in0.0 mm 0.41 in10.4 mm
02:43 PM 63.1°F17.3°C 59.8°F15.4°C 89% 6.0 mph WSW9.7 kmh WSW -- 29.73 in1006.8 mb 0.00 in0.0 mm 0.00 in0.0 mm 0.41 in10.4 mm
02:48 PM 63.1°F17.3°C 59.8°F15.4°C 89% 2.0 mph W3.2 kmh W -- 29.74 in1007.1 mb 0.00 in0.0 mm 0.00 in0.0 mm 0.41 in10.4 mm
02:53 PM 63.1°F17.3°C 59.8°F15.4°C 89% 5.0 mph WSW8.0 kmh WSW -- 29.74 in1007.1 mb 0.00 in0.0 mm 0.00 in0.0 mm 0.41 in10.4 mm
02:58 PM 63.1°F17.3°C 59.8°F15.4°C 89% 2.0 mph S3.2 kmh S -- 29.74 in1007.1 mb 0.00 in0.0 mm 0.00 in0.0 mm 0.41 in10.4 mm
03:03 PM 63.0°F17.2°C 59.6°F15.3°C 89% 5.0 mph N8.0 kmh N -- 29.74 in1007.1 mb 0.00 in0.0 mm 0.00 in0.0 mm 0.41 in10.4 mm
03:08 PM 62.9°F17.2°C 59.6°F15.3°C 89% 4.0 mph W6.4 kmh W -- 29.74 in1007.1 mb 0.00 in0.0 mm 0.00 in0.0 mm 0.41 in10.4 mm
03:13 PM 63.0°F17.2°C 59.6°F15.3°C 89% 3.0 mph SW4.8 kmh SW -- 29.74 in1007.1 mb 0.00 in0.0 mm 0.00 in0.0 mm 0.41 in10.4 mm
03:18 PM 63.0°F17.2°C 59.6°F15.3°C 89% 2.0 mph S3.2 kmh S -- 29.74 in1007.1 mb 0.00 in0.0 mm 0.00 in0.0 mm 0.41 in10.4 mm
03:23 PM 62.9°F17.2°C 59.6°F15.3°C 89% 7.0 mph SW11.3 kmh SW -- 29.74 in1007.1 mb 0.00 in0.0 mm 0.00 in0.0 mm 0.41 in10.4 mm
03:28 PM 62.8°F17.1°C 59.5°F15.3°C 89% 4.0 mph SW6.4 kmh SW -- 29.74 in1007.1 mb 0.00 in0.0 mm 0.00 in0.0 mm 0.41 in10.4 mm
03:33 PM 62.9°F17.2°C 60.0°F15.6°C 90% 3.0 mph SSE4.8 kmh SSE -- 29.74 in1007.1 mb 0.00 in0.0 mm 0.00 in0.0 mm 0.41 in10.4 mm
03:38 PM 62.9°F17.2°C 60.0°F15.6°C 90% 6.0 mph S9.7 kmh S -- 29.73 in1006.8 mb 0.00 in0.0 mm 0.00 in0.0 mm 0.41 in10.4 mm
03:43 PM 62.8°F17.1°C 59.8°F15.4°C 90% 2.0 mph S3.2 kmh S -- 29.73 in1006.8 mb 0.00 in0.0 mm 0.00 in0.0 mm 0.41 in10.4 mm
03:48 PM 62.8°F17.1°C 59.8°F15.4°C 90% 3.0 mph SSW4.8 kmh SSW -- 29.74 in1007.1 mb 0.00 in0.0 mm 0.00 in0.0 mm 0.41 in10.4 mm
03:53 PM 62.8°F17.1°C 59.8°F15.4°C 90% 3.0 mph SW4.8 kmh SW -- 29.74 in1007.1 mb 0.00 in0.0 mm 0.00 in0.0 mm 0.41 in10.4 mm
03:58 PM 62.6°F17.0°C 59.6°F15.3°C 90% 9.0 mph SW14.5 kmh SW -- 29.74 in1007.1 mb 0.00 in0.0 mm 0.00 in0.0 mm 0.41 in10.4 mm
04:03 PM 62.6°F17.0°C 59.9°F15.5°C 91% 6.0 mph SSE9.7 kmh SSE -- 29.73 in1006.8 mb 0.00 in0.0 mm 0.00 in0.0 mm 0.41 in10.4 mm
04:08 PM 62.6°F17.0°C 59.9°F15.5°C 91% 3.0 mph S4.8 kmh S -- 29.74 in1007.1 mb 0.00 in0.0 mm 0.00 in0.0 mm 0.41 in10.4 mm
04:13 PM 62.6°F17.0°C 59.9°F15.5°C 91% 5.0 mph SW8.0 kmh SW -- 29.73 in1006.8 mb 0.00 in0.0 mm 0.00 in0.0 mm 0.41 in10.4 mm
04:18 PM 62.5°F16.9°C 59.7°F15.4°C 91% 3.0 mph SSE4.8 kmh SSE -- 29.74 in1007.1 mb 0.00 in0.0 mm 0.00 in0.0 mm 0.41 in10.4 mm
04:23 PM 62.3°F16.8°C 59.6°F15.3°C 91% 2.0 mph SE3.2 kmh SE -- 29.74 in1007.1 mb 0.00 in0.0 mm 0.00 in0.0 mm 0.41 in10.4 mm
04:28 PM 62.3°F16.8°C 59.9°F15.5°C 92% 3.0 mph S4.8 kmh S -- 29.74 in1007.1 mb 0.00 in0.0 mm 0.00 in0.0 mm 0.41 in10.4 mm
04:33 PM 62.2°F16.8°C 59.9°F15.5°C 92% 2.0 mph WSW3.2 kmh WSW -- 29.73 in1006.8 mb 0.00 in0.0 mm 0.00 in0.0 mm 0.41 in10.4 mm
04:38 PM 62.0°F16.7°C 60.0°F15.6°C 93% 3.0 mph W4.8 kmh W -- 29.73 in1006.8 mb 0.00 in0.0 mm 0.00 in0.0 mm 0.41 in10.4 mm
04:43 PM 61.4°F16.3°C 59.0°F15.0°C 92% 7.0 mph NW11.3 kmh NW -- 29.74 in1007.1 mb 0.02 in0.5 mm 0.24 in6.1 mm 0.43 in10.9 mm
04:48 PM 60.9°F16.1°C 58.6°F14.8°C 92% 4.0 mph SW6.4 kmh SW -- 29.75 in1007.5 mb 0.02 in0.5 mm 0.00 in0.0 mm 0.43 in10.9 mm
04:53 PM 60.5°F15.8°C 58.4°F14.7°C 93% 2.0 mph ENE3.2 kmh ENE -- 29.75 in1007.5 mb 0.03 in0.8 mm 0.12 in3.0 mm 0.44 in11.2 mm
04:58 PM 60.2°F15.7°C 58.2°F14.6°C 93% 4.0 mph WSW6.4 kmh WSW -- 29.75 in1007.5 mb 0.03 in0.8 mm 0.00 in0.0 mm 0.44 in11.2 mm
05:03 PM 60.0°F15.6°C 58.3°F14.6°C 94% 5.0 mph NNW8.0 kmh NNW -- 29.75 in1007.5 mb 0.03 in0.8 mm 0.00 in0.0 mm 0.44 in11.2 mm
05:08 PM 59.0°F15.0°C 56.4°F13.6°C 91% 10.0 mph N16.1 kmh N -- 29.75 in1007.5 mb 0.04 in1.0 mm 0.12 in3.0 mm 0.45 in11.4 mm
05:13 PM 58.4°F14.7°C 56.1°F13.4°C 92% 11.0 mph N17.7 kmh N -- 29.75 in1007.5 mb 0.04 in1.0 mm 0.00 in0.0 mm 0.45 in11.4 mm
05:18 PM 57.9°F14.4°C 55.3°F12.9°C 91% 5.0 mph N8.0 kmh N -- 29.76 in1007.8 mb 0.04 in1.0 mm 0.00 in0.0 mm 0.45 in11.4 mm
05:23 PM 57.0°F13.9°C 53.8°F12.1°C 89% 4.0 mph N6.4 kmh N -- 29.76 in1007.8 mb 0.04 in1.0 mm 0.00 in0.0 mm 0.45 in11.4 mm
05:28 PM 56.7°F13.7°C 53.7°F12.1°C 90% 3.0 mph NNW4.8 kmh NNW -- 29.77 in1008.1 mb 0.04 in1.0 mm 0.00 in0.0 mm 0.45 in11.4 mm
05:33 PM 56.2°F13.4°C 53.2°F11.8°C 90% 4.0 mph NNE6.4 kmh NNE -- 29.77 in1008.1 mb 0.04 in1.0 mm 0.00 in0.0 mm 0.45 in11.4 mm
05:38 PM 55.9°F13.3°C 53.0°F11.7°C 90% 6.0 mph NNW9.7 kmh NNW -- 29.77 in1008.1 mb 0.02 in0.5 mm 0.00 in0.0 mm 0.45 in11.4 mm
05:43 PM 55.6°F13.1°C 52.7°F11.5°C 90% 16.0 mph NNW25.7 kmh NNW -- 29.77 in1008.1 mb 0.02 in0.5 mm 0.00 in0.0 mm 0.45 in11.4 mm
05:48 PM 55.4°F13.0°C 52.2°F11.2°C 89% 6.0 mph N9.7 kmh N -- 29.78 in1008.5 mb 0.01 in0.3 mm 0.00 in0.0 mm 0.45 in11.4 mm
05:53 PM 55.0°F12.8°C 50.9°F10.5°C 86% 7.0 mph NNW11.3 kmh NNW -- 29.78 in1008.5 mb 0.01 in0.3 mm 0.00 in0.0 mm 0.45 in11.4 mm
05:58 PM 54.8°F12.7°C 50.7°F10.4°C 86% 4.0 mph N6.4 kmh N -- 29.78 in1008.5 mb 0.01 in0.3 mm 0.00 in0.0 mm 0.45 in11.4 mm
06:03 PM 54.4°F12.4°C 49.9°F9.9°C 85% 5.0 mph NNW8.0 kmh NNW -- 29.78 in1008.5 mb 0.01 in0.3 mm 0.00 in0.0 mm 0.45 in11.4 mm
06:08 PM 54.1°F12.3°C 49.7°F9.8°C 85% 9.0 mph NW14.5 kmh NW -- 29.79 in1008.8 mb 0.00 in0.0 mm 0.00 in0.0 mm 0.45 in11.4 mm
06:13 PM 53.8°F12.1°C 48.4°F9.1°C 82% 5.0 mph N8.0 kmh N -- 29.79 in1008.8 mb 0.00 in0.0 mm 0.00 in0.0 mm 0.45 in11.4 mm
06:18 PM 53.7°F12.1°C 48.4°F9.1°C 82% 3.0 mph NW4.8 kmh NW -- 29.79 in1008.8 mb 0.00 in0.0 mm 0.00 in0.0 mm 0.45 in11.4 mm
06:23 PM 53.6°F12.0°C 47.9°F8.8°C 81% 7.0 mph NNW11.3 kmh NNW -- 29.80 in1009.1 mb 0.00 in0.0 mm 0.00 in0.0 mm 0.45 in11.4 mm
06:28 PM 53.3°F11.8°C 47.5°F8.6°C 81% 7.0 mph N11.3 kmh N -- 29.80 in1009.1 mb 0.00 in0.0 mm 0.00 in0.0 mm 0.45 in11.4 mm
06:33 PM 53.0°F11.7°C 46.0°F7.8°C 77% 14.0 mph NNW22.5 kmh NNW -- 29.80 in1009.1 mb 0.00 in0.0 mm 0.00 in0.0 mm 0.45 in11.4 mm
06:38 PM 52.6°F11.4°C 45.4°F7.4°C 77% 6.0 mph N9.7 kmh N -- 29.81 in1009.5 mb 0.00 in0.0 mm 0.00 in0.0 mm 0.45 in11.4 mm
06:43 PM 52.2°F11.2°C 44.7°F7.1°C 76% 6.0 mph N9.7 kmh N -- 29.81 in1009.5 mb 0.00 in0.0 mm 0.00 in0.0 mm 0.45 in11.4 mm
06:48 PM 51.9°F11.1°C 44.9°F7.2°C 77% 7.0 mph N11.3 kmh N -- 29.81 in1009.5 mb 0.00 in0.0 mm 0.00 in0.0 mm 0.45 in11.4 mm
06:53 PM 51.7°F10.9°C 44.6°F7.0°C 77% 10.0 mph NNW16.1 kmh NNW -- 29.82 in1009.8 mb 0.00 in0.0 mm 0.00 in0.0 mm 0.45 in11.4 mm
06:58 PM 51.4°F10.8°C 44.4°F6.9°C 77% 11.0 mph W17.7 kmh W -- 29.82 in1009.8 mb 0.00 in0.0 mm 0.00 in0.0 mm 0.45 in11.4 mm
07:03 PM 51.1°F10.6°C 44.0°F6.7°C 77% 7.0 mph N11.3 kmh N -- 29.82 in1009.8 mb 0.00 in0.0 mm 0.00 in0.0 mm 0.45 in11.4 mm
07:08 PM 50.9°F10.5°C 43.2°F6.2°C 75% 7.0 mph N11.3 kmh N -- 29.83 in1010.2 mb 0.00 in0.0 mm 0.00 in0.0 mm 0.45 in11.4 mm
07:13 PM 50.6°F10.3°C 42.8°F6.0°C 75% 7.0 mph NW11.3 kmh NW -- 29.83 in1010.2 mb 0.00 in0.0 mm 0.00 in0.0 mm 0.45 in11.4 mm
07:18 PM 50.2°F10.1°C 42.5°F5.8°C 75% 5.0 mph NNW8.0 kmh NNW -- 29.83 in1010.2 mb 0.00 in0.0 mm 0.00 in0.0 mm 0.45 in11.4 mm
07:23 PM 49.8°F9.9°C 41.4°F5.2°C 73% 5.0 mph N8.0 kmh N -- 29.83 in1010.2 mb 0.00 in0.0 mm 0.00 in0.0 mm 0.45 in11.4 mm
07:28 PM 49.5°F9.7°C 41.1°F5.1°C 73% 5.0 mph NW8.0 kmh NW -- 29.84 in1010.5 mb 0.00 in0.0 mm 0.00 in0.0 mm 0.45 in11.4 mm
07:33 PM 49.2°F9.6°C 41.6°F5.3°C 75% 5.0 mph E8.0 kmh E -- 29.84 in1010.5 mb 0.00 in0.0 mm 0.00 in0.0 mm 0.45 in11.4 mm
07:38 PM 48.9°F9.4°C 41.3°F5.2°C 75% 11.0 mph NW17.7 kmh NW -- 29.84 in1010.5 mb 0.00 in0.0 mm 0.00 in0.0 mm 0.45 in11.4 mm
07:43 PM 48.8°F9.3°C 41.1°F5.1°C 75% 15.0 mph NNW24.1 kmh NNW -- 29.85 in1010.8 mb 0.00 in0.0 mm 0.00 in0.0 mm 0.45 in11.4 mm
07:48 PM 48.5°F9.2°C 40.2°F4.6°C 73% 10.0 mph NE16.1 kmh NE -- 29.85 in1010.8 mb 0.00 in0.0 mm 0.00 in0.0 mm 0.45 in11.4 mm
07:53 PM 48.4°F9.1°C 40.7°F4.8°C 75% 4.0 mph N6.4 kmh N -- 29.85 in1010.8 mb 0.00 in0.0 mm 0.00 in0.0 mm 0.45 in11.4 mm
07:58 PM 48.2°F9.0°C 40.2°F4.6°C 74% 7.0 mph NNE11.3 kmh NNE -- 29.86 in1011.2 mb 0.00 in0.0 mm 0.00 in0.0 mm 0.45 in11.4 mm
08:03 PM 48.1°F8.9°C 39.3°F4.1°C 72% 7.0 mph N11.3 kmh N -- 29.86 in1011.2 mb 0.00 in0.0 mm 0.00 in0.0 mm 0.45 in11.4 mm
08:08 PM 48.1°F8.9°C 39.7°F4.3°C 73% 4.0 mph N6.4 kmh N -- 29.86 in1011.2 mb 0.00 in0.0 mm 0.00 in0.0 mm 0.45 in11.4 mm
08:13 PM 47.9°F8.8°C 39.2°F4.0°C 72% 3.0 mph NNE4.8 kmh NNE -- 29.87 in1011.5 mb 0.00 in0.0 mm 0.00 in0.0 mm 0.45 in11.4 mm
08:18 PM 47.8°F8.8°C 39.5°F4.2°C 73% 7.0 mph N11.3 kmh N -- 29.87 in1011.5 mb 0.00 in0.0 mm 0.00 in0.0 mm 0.45 in11.4 mm
08:23 PM 47.0°F8.3°C 39.3°F4.1°C 75% 8.0 mph N12.9 kmh N -- 29.87 in1011.5 mb 0.00 in0.0 mm 0.00 in0.0 mm 0.45 in11.4 mm
08:28 PM 46.6°F8.1°C 39.3°F4.1°C 76% 8.0 mph NNE12.9 kmh NNE -- 29.87 in1011.5 mb 0.00 in0.0 mm 0.00 in0.0 mm 0.45 in11.4 mm
08:33 PM 46.2°F7.9°C 38.3°F3.5°C 74% 3.0 mph N4.8 kmh N -- 29.88 in1011.9 mb 0.00 in0.0 mm 0.00 in0.0 mm 0.45 in11.4 mm
08:38 PM 45.5°F7.5°C 37.3°F2.9°C 73% 13.0 mph N20.9 kmh N -- 29.88 in1011.9 mb 0.00 in0.0 mm 0.00 in0.0 mm 0.45 in11.4 mm
08:43 PM 44.9°F7.2°C 36.4°F2.4°C 72% 12.0 mph NNE19.3 kmh NNE -- 29.88 in1011.9 mb 0.00 in0.0 mm 0.00 in0.0 mm 0.45 in11.4 mm
08:48 PM 44.7°F7.1°C 36.9°F2.7°C 74% 9.0 mph N14.5 kmh N -- 29.89 in1012.2 mb 0.00 in0.0 mm 0.00 in0.0 mm 0.45 in11.4 mm
08:53 PM 44.5°F6.9°C 36.2°F2.3°C 73% 7.0 mph N11.3 kmh N -- 29.89 in1012.2 mb 0.00 in0.0 mm 0.00 in0.0 mm 0.45 in11.4 mm
08:58 PM 44.3°F6.8°C 36.0°F2.2°C 73% 8.0 mph NNE12.9 kmh NNE -- 29.89 in1012.2 mb 0.00 in0.0 mm 0.00 in0.0 mm 0.45 in11.4 mm
09:03 PM 44.1°F6.7°C 35.2°F1.8°C 71% 7.0 mph NNW11.3 kmh NNW -- 29.89 in1012.2 mb 0.00 in0.0 mm 0.00 in0.0 mm 0.45 in11.4 mm
09:08 PM 43.8°F6.6°C 35.7°F2.1°C 73% 3.0 mph N4.8 kmh N -- 29.89 in1012.2 mb 0.00 in0.0 mm 0.00 in0.0 mm 0.45 in11.4 mm
09:13 PM 43.7°F6.5°C 35.2°F1.8°C 72% 8.0 mph NE12.9 kmh NE -- 29.90 in1012.5 mb 0.00 in0.0 mm 0.00 in0.0 mm 0.45 in11.4 mm
09:18 PM 43.6°F6.4°C 35.0°F1.7°C 72% 6.0 mph N9.7 kmh N -- 29.90 in1012.5 mb 0.00 in0.0 mm 0.00 in0.0 mm 0.45 in11.4 mm
09:23 PM 43.5°F6.4°C 35.3°F1.8°C 73% 7.0 mph NE11.3 kmh NE -- 29.90 in1012.5 mb 0.00 in0.0 mm 0.00 in0.0 mm 0.45 in11.4 mm
09:28 PM 43.4°F6.3°C 35.2°F1.8°C 73% 5.0 mph N8.0 kmh N -- 29.90 in1012.5 mb 0.00 in0.0 mm 0.00 in0.0 mm 0.45 in11.4 mm
09:33 PM 43.4°F6.3°C 35.2°F1.8°C 73% 6.0 mph N9.7 kmh N -- 29.90 in1012.5 mb 0.00 in0.0 mm 0.00 in0.0 mm 0.45 in11.4 mm
09:38 PM 43.1°F6.2°C 34.6°F1.4°C 72% 6.0 mph NNE9.7 kmh NNE -- 29.91 in1012.9 mb 0.00 in0.0 mm 0.00 in0.0 mm 0.45 in11.4 mm
09:43 PM 43.0°F6.1°C 34.5°F1.4°C 72% 4.0 mph NNE6.4 kmh NNE -- 29.91 in1012.9 mb 0.00 in0.0 mm 0.00 in0.0 mm 0.45 in11.4 mm
09:48 PM 42.8°F6.0°C 33.9°F1.1°C 71% 4.0 mph N6.4 kmh N -- 29.91 in1012.9 mb 0.00 in0.0 mm 0.00 in0.0 mm 0.45 in11.4 mm
09:53 PM 42.6°F5.9°C 34.1°F1.2°C 72% 5.0 mph N8.0 kmh N -- 29.91 in1012.9 mb 0.00 in0.0 mm 0.00 in0.0 mm 0.45 in11.4 mm
09:58 PM 42.5°F5.8°C 33.6°F0.9°C 71% 11.0 mph NNE17.7 kmh NNE -- 29.91 in1012.9 mb 0.00 in0.0 mm 0.00 in0.0 mm 0.45 in11.4 mm
10:03 PM 42.3°F5.7°C 33.1°F0.6°C 70% 9.0 mph NNE14.5 kmh NNE -- 29.92 in1013.2 mb 0.00 in0.0 mm 0.00 in0.0 mm 0.45 in11.4 mm
10:08 PM 42.3°F5.7°C 33.4°F0.8°C 71% 10.0 mph N16.1 kmh N -- 29.92 in1013.2 mb 0.00 in0.0 mm 0.00 in0.0 mm 0.45 in11.4 mm
10:13 PM 42.0°F5.6°C 33.3°F0.7°C 71% 9.0 mph N14.5 kmh N -- 29.92 in1013.2 mb 0.00 in0.0 mm 0.00 in0.0 mm 0.45 in11.4 mm
10:18 PM 41.8°F5.4°C 32.5°F0.3°C 70% 4.0 mph N6.4 kmh N -- 29.93 in1013.5 mb 0.00 in0.0 mm 0.00 in0.0 mm 0.45 in11.4 mm
10:23 PM 41.9°F5.5°C 32.4°F0.2°C 69% 10.0 mph N16.1 kmh N -- 29.93 in1013.5 mb 0.00 in0.0 mm 0.00 in0.0 mm 0.45 in11.4 mm
10:28 PM 41.9°F5.5°C 32.4°F0.2°C 69% 4.0 mph NNE6.4 kmh NNE -- 29.93 in1013.5 mb 0.00 in0.0 mm 0.00 in0.0 mm 0.45 in11.4 mm
10:33 PM 41.8°F5.4°C 32.5°F0.3°C 70% 6.0 mph NE9.7 kmh NE -- 29.93 in1013.5 mb 0.00 in0.0 mm 0.00 in0.0 mm 0.45 in11.4 mm
10:38 PM 41.7°F5.4°C 32.2°F0.1°C 69% 11.0 mph NNE17.7 kmh NNE -- 29.94 in1013.9 mb 0.00 in0.0 mm 0.00 in0.0 mm 0.45 in11.4 mm
10:43 PM 41.7°F5.4°C 32.2°F0.1°C 69% 9.0 mph N14.5 kmh N -- 29.94 in1013.9 mb 0.00 in0.0 mm 0.00 in0.0 mm 0.45 in11.4 mm
10:48 PM 41.6°F5.3°C 32.0°F0.0°C 69% 5.0 mph N8.0 kmh N -- 29.94 in1013.9 mb 0.00 in0.0 mm 0.00 in0.0 mm 0.45 in11.4 mm
10:53 PM 41.5°F5.3°C 32.7°F0.4°C 71% 6.0 mph NNE9.7 kmh NNE -- 29.94 in1013.9 mb 0.00 in0.0 mm 0.00 in0.0 mm 0.45 in11.4 mm
10:58 PM 41.5°F5.3°C 32.0°F0.0°C 69% 9.0 mph NE14.5 kmh NE -- 29.94 in1013.9 mb 0.00 in0.0 mm 0.00 in0.0 mm 0.45 in11.4 mm
11:03 PM 41.5°F5.3°C 32.4°F0.2°C 70% 10.0 mph NNE16.1 kmh NNE -- 29.94 in1013.9 mb 0.00 in0.0 mm 0.00 in0.0 mm 0.45 in11.4 mm
11:08 PM 41.5°F5.3°C 32.0°F0.0°C 69% 6.0 mph NNE9.7 kmh NNE -- 29.94 in1013.9 mb 0.00 in0.0 mm 0.00 in0.0 mm 0.45 in11.4 mm
11:13 PM 41.5°F5.3°C 32.0°F0.0°C 69% 3.0 mph NNW4.8 kmh NNW -- 29.94 in1013.9 mb 0.00 in0.0 mm 0.00 in0.0 mm 0.45 in11.4 mm
11:18 PM 41.3°F5.2°C 31.8°F-0.1°C 69% 4.0 mph ENE6.4 kmh ENE -- 29.94 in1013.9 mb 0.00 in0.0 mm 0.00 in0.0 mm 0.45 in11.4 mm
11:23 PM 41.3°F5.2°C 31.8°F-0.1°C 69% 5.0 mph NNE8.0 kmh NNE -- 29.95 in1014.2 mb 0.00 in0.0 mm 0.00 in0.0 mm 0.45 in11.4 mm
11:28 PM 41.2°F5.1°C 31.3°F-0.4°C 68% 8.0 mph N12.9 kmh N -- 29.95 in1014.2 mb 0.00 in0.0 mm 0.00 in0.0 mm 0.45 in11.4 mm
11:33 PM 41.3°F5.2°C 31.8°F-0.1°C 69% 9.0 mph N14.5 kmh N -- 29.96 in1014.6 mb 0.00 in0.0 mm 0.00 in0.0 mm 0.45 in11.4 mm
11:38 PM 41.3°F5.2°C 31.5°F-0.3°C 68% 7.0 mph N11.3 kmh N -- 29.95 in1014.2 mb 0.00 in0.0 mm 0.00 in0.0 mm 0.45 in11.4 mm
11:43 PM 41.2°F5.1°C 31.3°F-0.4°C 68% 5.0 mph N8.0 kmh N -- 29.96 in1014.6 mb 0.00 in0.0 mm 0.00 in0.0 mm 0.45 in11.4 mm
11:48 PM 41.1°F5.1°C 31.7°F-0.2°C 69% 7.0 mph N11.3 kmh N -- 29.96 in1014.6 mb 0.00 in0.0 mm 0.00 in0.0 mm 0.45 in11.4 mm
11:53 PM 41.0°F5.0°C 31.1°F-0.5°C 68% 9.0 mph NNW14.5 kmh NNW -- 29.96 in1014.6 mb 0.00 in0.0 mm 0.00 in0.0 mm 0.45 in11.4 mm
11:58 PM 40.8°F4.9°C 31.0°F-0.6°C 68% 12.0 mph NE19.3 kmh NE -- 29.96 in1014.6 mb 0.00 in0.0 mm 0.00 in0.0 mm 0.45 in11.4 mm